Terminal Aerodrome Forecast
Issued by NWS Charleston, SC

Current Version | Previous Version | Text Only | Print | Product List | Glossary On
Versions: 1 2 3 4 5 6 7 8 9 10 11 12 13 14 15
810
FTUS42 KCHS 082016 AAA
TAFCHS
TAF AMD
KCHS 082016Z 0820/0918 20017G23KT P6SM SCT100
     FM082200 21017G25KT P6SM SCT050 BKN080
     FM090000 24015G23KT P6SM VCSH SCT035 OVC050
      TEMPO 0900/0904 6SM -SHRA BKN035
     FM090600 27015G21KT P6SM SCT050
     FM091500 27017G27KT P6SM SCT035 BKN050=

USA.gov is the U.S. government's official web portal to all federal, state and local government web resources and services.